Time;durP1;ratioP1;P1;durP2;ratioP2;P2;SDS_P1;SDS_P2;PMS_P1;PMS_P2;Temp;Humidity;BMP_temperature;BMP_pressure;BME280_temperature;BME280_humidity;BME280_pressure;Samples;Min_cycle;Max_cycle;Signal;HPM_P1;HPM_P2
2023/01/17 00:02:25;;;;;;;3.20;1.63;;;5.40;99.90;;;;;;5046693;28;20209;-32
2023/01/17 00:10:27;;;;;;;2.77;2.00;;;5.40;99.90;;;;;;5045960;28;20723;-32
2023/01/17 00:12:57;;;;;;;6.17;1.90;;;5.40;99.90;;;;;;5046291;28;20212;-32
2023/01/17 00:15:26;;;;;;;6.80;1.90;;;5.30;99.90;;;;;;5044733;28;20240;-32
2023/01/17 00:17:56;;;;;;;4.07;1.90;;;5.30;99.90;;;;;;5046146;28;20287;-32
2023/01/17 00:26:11;;;;;;;5.40;1.90;;;5.20;99.90;;;;;;5046150;28;20228;-32
2023/01/17 01:33:59;;;;;;;3.93;2.50;;;4.50;99.90;;;;;;5068465;28;20577;-32
2023/01/17 01:36:26;;;;;;;4.47;2.43;;;4.40;99.90;;;;;;5068339;28;20318;-32
2023/01/17 01:38:53;;;;;;;5.43;2.37;;;4.40;99.90;;;;;;5068441;28;20244;-32
2023/01/17 01:41:23;;;;;;;3.30;2.13;;;4.40;99.90;;;;;;5068122;28;20204;-32
2023/01/17 01:43:55;;;;;;;6.50;2.50;;;4.40;99.90;;;;;;5068453;28;20318;-32
2023/01/17 01:46:28;;;;;;;5.20;2.40;;;4.40;99.90;;;;;;5068462;28;20202;-32
2023/01/17 01:49:03;;;;;;;7.00;2.53;;;4.40;99.90;;;;;;5068513;28;20265;-32
2023/01/17 01:51:48;;;;;;;4.00;2.60;;;4.40;99.90;;;;;;5068444;28;20604;-32
2023/01/17 01:54:20;;;;;;;6.07;2.70;;;4.30;99.90;;;;;;5067071;28;20626;-32
2023/01/17 01:56:50;;;;;;;4.93;3.00;;;4.30;99.90;;;;;;5068164;28;20226;-32
2023/01/17 01:59:21;;;;;;;6.13;2.40;;;4.30;99.90;;;;;;5065768;28;20203;-32
2023/01/17 02:01:51;;;;;;;6.17;2.80;;;4.30;99.90;;;;;;5067670;28;20200;-32
2023/01/17 02:04:20;;;;;;;5.73;2.57;;;4.20;99.90;;;;;;5060287;28;20987;-32
2023/01/17 02:06:58;;;;;;;4.03;2.63;;;4.20;99.90;;;;;;5053583;28;20287;-32
2023/01/17 02:09:26;;;;;;;5.17;2.77;;;4.20;99.90;;;;;;5047880;28;20742;-32
2023/01/17 02:11:56;;;;;;;4.30;2.63;;;4.10;99.90;;;;;;5047474;28;20295;-32
2023/01/17 02:14:25;;;;;;;5.57;2.77;;;4.10;99.90;;;;;;5047827;28;20654;-32
2023/01/17 02:17:23;;;;;;;3.27;2.57;;;4.10;99.90;;;;;;5047753;28;20232;-32
2023/01/17 02:19:53;;;;;;;4.43;3.23;;;4.10;99.90;;;;;;5046091;28;20224;-32
2023/01/17 02:22:42;;;;;;;6.00;3.17;;;4.00;99.90;;;;;;5048058;28;20200;-32
2023/01/17 02:25:42;;;;;;;3.83;3.10;;;4.00;99.90;;;;;;5047509;28;20291;-32
2023/01/17 02:28:40;;;;;;;5.17;3.23;;;4.00;99.90;;;;;;5046904;28;20223;-32
2023/01/17 02:31:44;;;;;;;3.83;3.40;;;4.00;99.90;;;;;;5046963;28;20574;-32
2023/01/17 02:34:22;;;;;;;4.27;3.07;;;4.00;99.90;;;;;;5046822;28;20235;-32
2023/01/17 02:37:00;;;;;;;4.13;3.20;;;3.90;99.90;;;;;;5046720;28;20223;-32
2023/01/17 02:39:38;;;;;;;4.53;3.87;;;4.00;99.90;;;;;;5047171;28;20204;-32
2023/01/17 02:42:13;;;;;;;7.70;4.10;;;4.00;99.90;;;;;;5046700;28;20690;-32
2023/01/17 02:44:43;;;;;;;10.00;4.30;;;3.90;99.90;;;;;;5045537;28;20204;-32
2023/01/17 02:47:30;;;;;;;7.80;4.20;;;3.90;99.90;;;;;;5029063;28;20211;-32
2023/01/17 02:50:10;;;;;;;7.20;4.20;;;3.80;99.90;;;;;;5046918;28;20208;-32
2023/01/17 02:53:02;;;;;;;6.40;4.10;;;3.80;99.90;;;;;;5046455;28;20762;-32
2023/01/17 02:55:47;;;;;;;6.70;4.80;;;3.80;99.90;;;;;;5045871;28;20328;-32
2023/01/17 02:58:38;;;;;;;9.90;5.60;;;3.80;99.90;;;;;;5047046;28;20758;-32
2023/01/17 03:01:33;;;;;;;7.55;4.93;;;3.80;99.90;;;;;;5045149;28;20415;-32
2023/01/17 03:04:19;;;;;;;8.67;5.27;;;4.00;99.90;;;;;;5046370;28;20267;-32
2023/01/17 03:06:55;;;;;;;7.20;4.63;;;3.90;99.90;;;;;;5046308;28;20201;-32
2023/01/17 03:09:26;;;;;;;8.47;5.67;;;3.90;99.90;;;;;;5045519;28;20250;-32
2023/01/17 03:11:54;;;;;;;10.03;5.40;;;3.80;99.90;;;;;;5047601;28;20220;-32
2023/01/17 03:14:21;;;;;;;10.67;5.90;;;3.80;99.90;;;;;;5046737;28;20291;-32
2023/01/17 03:16:48;;;;;;;8.47;5.50;;;3.80;99.90;;;;;;5047146;28;20239;-32
2023/01/17 03:19:15;;;;;;;6.90;5.73;;;3.80;99.90;;;;;;5047070;28;20211;-32
2023/01/17 03:21:45;;;;;;;9.27;6.13;;;3.80;99.90;;;;;;5047278;28;20679;-32
2023/01/17 03:24:12;;;;;;;14.10;5.80;;;3.70;99.90;;;;;;5046122;28;20752;-32
2023/01/17 03:26:43;;;;;;;8.20;6.00;;;3.70;99.90;;;;;;5046779;28;20194;-32
2023/01/17 03:29:10;;;;;;;7.77;5.80;;;3.70;99.90;;;;;;5046900;28;20216;-32
2023/01/17 03:31:38;;;;;;;8.53;6.23;;;3.70;99.90;;;;;;5046880;28;20730;-32
2023/01/17 03:34:07;;;;;;;9.70;6.00;;;3.70;99.90;;;;;;5046762;28;20679;-32
2023/01/17 03:36:34;;;;;;;10.60;6.00;;;3.70;99.90;;;;;;5045009;28;20239;-32
2023/01/17 03:39:04;;;;;;;9.15;6.60;;;3.70;99.90;;;;;;5045273;28;20392;-32
2023/01/17 03:41:33;;;;;;;7.78;6.20;;;3.90;99.90;;;;;;5045515;28;20813;-32
2023/01/17 03:44:03;;;;;;;7.60;6.38;;;4.10;99.90;;;;;;5045543;28;20947;-32
2023/01/17 03:46:30;;;;;;;8.50;6.17;;;4.30;99.90;;;;;;5046094;28;20768;-32
2023/01/17 03:48:57;;;;;;;8.30;6.00;;;4.20;99.90;;;;;;5044324;28;20232;-32
2023/01/17 03:51:25;;;;;;;9.00;6.10;;;4.10;99.90;;;;;;5045522;28;20556;-32
2023/01/17 03:53:52;;;;;;;8.37;5.93;;;4.00;99.90;;;;;;5046196;28;20286;-32
2023/01/17 03:56:24;;;;;;;12.43;6.67;;;3.90;99.90;;;;;;5045957;28;20256;-32
2023/01/17 03:58:53;;;;;;;11.10;5.87;;;3.80;99.90;;;;;;5045895;28;20535;-32
2023/01/17 04:01:20;;;;;;;10.07;6.00;;;3.70;99.90;;;;;;5045681;28;20210;-32
2023/01/17 04:03:48;;;;;;;9.20;5.90;;;3.70;99.90;;;;;;5044137;28;20200;-32
2023/01/17 04:06:15;;;;;;;8.30;6.27;;;3.70;99.90;;;;;;5047258;28;20318;-32
2023/01/17 04:08:42;;;;;;;11.17;6.33;;;3.60;99.90;;;;;;5049796;28;20311;-32
2023/01/17 04:11:12;;;;;;;9.37;6.90;;;3.60;99.90;;;;;;5050060;28;20239;-32
2023/01/17 04:13:41;;;;;;;9.80;6.13;;;3.60;99.90;;;;;;5049739;28;20207;-32
2023/01/17 04:16:16;;;;;;;12.60;6.57;;;3.50;99.90;;;;;;5049550;28;20227;-33
2023/01/17 04:18:44;;;;;;;8.10;6.63;;;3.50;99.90;;;;;;5049893;28;20647;-32
2023/01/17 04:21:13;;;;;;;13.67;7.00;;;3.40;99.90;;;;;;5049828;28;20232;-32
2023/01/17 04:23:43;;;;;;;9.33;6.33;;;3.40;99.90;;;;;;5049430;28;20215;-32
2023/01/17 04:26:13;;;;;;;9.83;6.63;;;3.40;99.90;;;;;;5049251;28;20200;-32
2023/01/17 04:28:41;;;;;;;10.10;6.50;;;3.40;99.90;;;;;;5049837;28;20204;-32
2023/01/17 04:31:15;;;;;;;11.37;6.67;;;3.40;99.90;;;;;;5049276;28;20207;-32
2023/01/17 04:33:45;;;;;;;8.47;6.60;;;3.40;99.90;;;;;;5049221;28;20208;-32
2023/01/17 04:36:15;;;;;;;11.13;6.77;;;3.40;99.90;;;;;;5049513;28;20216;-32
2023/01/17 04:38:44;;;;;;;10.33;6.13;;;3.30;99.90;;;;;;5049298;28;20204;-33
2023/01/17 04:41:11;;;;;;;8.97;7.13;;;3.30;99.90;;;;;;5048466;28;20228;-32
2023/01/17 04:43:38;;;;;;;11.07;7.30;;;3.30;99.90;;;;;;5048441;28;20252;-32
2023/01/17 04:46:08;;;;;;;10.87;6.83;;;3.30;99.90;;;;;;5049809;28;20668;-32
2023/01/17 04:48:37;;;;;;;10.53;6.50;;;3.30;99.90;;;;;;5049429;28;20210;-32
2023/01/17 04:51:06;;;;;;;11.17;6.70;;;3.30;99.90;;;;;;5049444;28;20208;-32
2023/01/17 04:53:36;;;;;;;10.63;6.80;;;3.30;99.90;;;;;;5047967;28;20239;-32
2023/01/17 04:56:03;;;;;;;9.03;6.73;;;3.20;99.90;;;;;;5048950;28;20702;-32
2023/01/17 04:58:32;;;;;;;8.30;6.57;;;3.20;99.90;;;;;;5049183;28;20197;-32
2023/01/17 05:01:03;;;;;;;11.23;6.90;;;3.20;99.90;;;;;;5049117;28;20192;-32
2023/01/17 05:03:31;;;;;;;11.87;6.70;;;3.20;99.90;;;;;;5049349;28;20258;-32
2023/01/17 05:06:01;;;;;;;8.53;6.50;;;3.20;99.90;;;;;;5048868;28;20227;-32
2023/01/17 05:08:30;;;;;;;10.43;6.83;;;3.20;99.90;;;;;;5048874;28;20704;-32
2023/01/17 05:11:02;;;;;;;10.27;7.00;;;3.20;99.90;;;;;;5047371;28;20254;-32
2023/01/17 05:13:32;;;;;;;12.17;7.30;;;3.20;99.90;;;;;;5048520;28;20208;-32
2023/01/17 05:16:01;;;;;;;9.70;6.70;;;3.20;99.90;;;;;;5048457;28;20315;-32
2023/01/17 05:18:31;;;;;;;9.07;6.70;;;3.20;99.90;;;;;;5048014;28;20204;-32
2023/01/17 05:21:02;;;;;;;8.83;6.73;;;3.20;99.90;;;;;;5047216;28;20254;-32
2023/01/17 05:23:29;;;;;;;11.83;7.30;;;3.20;99.90;;;;;;5048223;28;20250;-32
2023/01/17 05:25:58;;;;;;;11.33;7.17;;;3.20;99.90;;;;;;5047146;28;20439;-32
2023/01/17 05:28:25;;;;;;;9.63;6.23;;;3.20;99.90;;;;;;5048694;28;20200;-32
2023/01/17 05:30:58;;;;;;;12.50;7.07;;;3.20;99.90;;;;;;5048104;28;20208;-32
2023/01/17 05:33:28;;;;;;;10.70;7.40;;;3.20;99.90;;;;;;5048022;28;20208;-32
2023/01/17 05:35:58;;;;;;;9.37;6.67;;;3.20;99.90;;;;;;5048033;28;20315;-32
2023/01/17 05:38:27;;;;;;;11.37;7.30;;;3.20;99.90;;;;;;5048106;28;20307;-32
2023/01/17 05:40:57;;;;;;;9.23;6.50;;;3.20;99.90;;;;;;5047770;28;20249;-32
2023/01/17 05:43:27;;;;;;;8.53;6.60;;;3.20;99.90;;;;;;5047941;28;20774;-32
2023/01/17 05:45:59;;;;;;;10.70;7.10;;;3.20;99.90;;;;;;5047945;28;20881;-32
2023/01/17 05:48:28;;;;;;;9.90;6.30;;;3.20;99.90;;;;;;5048050;28;20215;-32
2023/01/17 05:50:58;;;;;;;10.27;7.53;;;3.20;99.90;;;;;;5048158;28;20204;-32
2023/01/17 05:53:32;;;;;;;14.80;7.13;;;3.20;99.90;;;;;;5047825;28;20817;-32
2023/01/17 05:56:00;;;;;;;10.60;7.53;;;3.20;99.90;;;;;;5047653;28;20228;-32
2023/01/17 05:58:27;;;;;;;9.63;7.27;;;3.20;99.90;;;;;;5047519;28;20196;-32
2023/01/17 06:00:54;;;;;;;11.63;7.20;;;3.20;99.90;;;;;;5047533;28;20254;-32
2023/01/17 06:03:24;;;;;;;8.97;7.23;;;3.20;99.90;;;;;;5047591;28;20207;-33
2023/01/17 06:05:54;;;;;;;8.90;6.97;;;3.20;99.90;;;;;;5046098;28;20208;-32
2023/01/17 06:08:22;;;;;;;13.80;7.60;;;3.10;99.90;;;;;;5047539;28;20230;-32
2023/01/17 06:10:54;;;;;;;11.63;7.30;;;3.10;99.90;;;;;;5047549;28;20685;-32
2023/01/17 06:13:21;;;;;;;13.83;7.03;;;3.10;99.90;;;;;;5046416;28;20209;-32
2023/01/17 06:15:51;;;;;;;12.50;7.77;;;3.10;99.90;;;;;;5047369;28;20204;-32
2023/01/17 06:18:21;;;;;;;10.50;7.17;;;3.10;99.90;;;;;;5047548;28;20197;-32
2023/01/17 06:20:53;;;;;;;12.23;6.87;;;3.10;99.90;;;;;;5047684;28;20731;-32
2023/01/17 06:23:23;;;;;;;11.20;7.03;;;3.10;99.90;;;;;;5047228;28;20296;-32
2023/01/17 06:25:55;;;;;;;11.77;7.30;;;3.10;99.90;;;;;;5047323;28;20287;-32
2023/01/17 06:28:23;;;;;;;11.50;7.30;;;3.00;99.90;;;;;;5046960;28;20223;-32
2023/01/17 06:30:50;;;;;;;10.30;7.40;;;3.00;99.90;;;;;;5044771;28;20261;-32
2023/01/17 06:33:17;;;;;;;9.97;7.53;;;3.00;99.90;;;;;;5047102;28;20246;-32
2023/01/17 06:35:49;;;;;;;11.57;6.90;;;3.00;99.90;;;;;;5046913;28;20208;-33
2023/01/17 06:38:19;;;;;;;11.63;7.00;;;2.90;99.90;;;;;;5045508;28;20205;-33
2023/01/17 06:40:46;;;;;;;11.83;7.77;;;2.90;99.90;;;;;;5046803;28;20212;-33
2023/01/17 06:43:16;;;;;;;10.20;7.60;;;2.90;99.90;;;;;;5046960;28;20686;-32
2023/01/17 06:45:45;;;;;;;13.00;7.87;;;2.90;99.90;;;;;;5046535;28;20205;-32
2023/01/17 06:48:18;;;;;;;13.83;8.07;;;2.90;99.90;;;;;;5046635;28;20258;-32
2023/01/17 06:50:48;;;;;;;11.33;7.47;;;2.90;99.90;;;;;;5047158;28;20685;-32
2023/01/17 06:53:18;;;;;;;10.97;7.37;;;2.80;99.90;;;;;;5046256;28;20229;-32
2023/01/17 06:55:47;;;;;;;15.73;8.40;;;2.90;99.90;;;;;;5046423;28;20614;-32
2023/01/17 06:58:19;;;;;;;13.30;8.40;;;2.80;99.90;;;;;;5046468;28;20313;-32
2023/01/17 07:00:46;;;;;;;13.93;8.33;;;2.80;99.90;;;;;;5046435;28;20286;-32
2023/01/17 07:03:23;;;;;;;15.07;8.80;;;2.70;99.90;;;;;;5047082;28;20200;-32
2023/01/17 07:05:51;;;;;;;11.70;8.33;;;2.70;99.90;;;;;;5046977;28;20764;-32
2023/01/17 07:08:23;;;;;;;12.23;7.63;;;2.70;99.90;;;;;;5046736;28;20208;-32
2023/01/17 07:10:50;;;;;;;12.83;8.03;;;2.70;99.90;;;;;;5046417;28;20235;-32
2023/01/17 07:13:17;;;;;;;17.40;8.73;;;2.70;99.90;;;;;;5046444;28;20202;-32
2023/01/17 07:15:49;;;;;;;14.33;8.87;;;2.70;99.90;;;;;;5046976;28;20235;-32
2023/01/17 07:18:22;;;;;;;14.80;9.13;;;2.80;99.90;;;;;;5046709;28;20232;-32
2023/01/17 07:20:54;;;;;;;12.00;8.97;;;2.80;99.90;;;;;;5045226;28;20200;-32
2023/01/17 07:23:24;;;;;;;16.83;8.90;;;2.80;99.90;;;;;;5045029;28;20188;-32
2023/01/17 07:25:59;;;;;;;14.93;8.93;;;2.80;99.90;;;;;;5046348;28;20204;-32
2023/01/17 07:28:27;;;;;;;15.13;9.13;;;2.80;99.90;;;;;;5046723;28;20208;-32
2023/01/17 07:30:54;;;;;;;13.50;8.77;;;2.80;99.90;;;;;;5046230;28;20235;-32
2023/01/17 07:33:24;;;;;;;16.57;10.27;;;2.80;99.90;;;;;;5044998;28;20231;-32
2023/01/17 07:35:51;;;;;;;14.33;8.83;;;2.80;99.90;;;;;;5046249;28;20223;-33
2023/01/17 07:38:19;;;;;;;12.50;8.70;;;2.80;99.90;;;;;;5044266;28;20613;-33
2023/01/17 07:40:46;;;;;;;13.80;9.03;;;2.80;99.90;;;;;;5045703;28;20227;-32
2023/01/17 07:43:13;;;;;;;15.07;9.23;;;2.80;99.90;;;;;;5046393;28;20721;-32
2023/01/17 07:45:49;;;;;;;19.37;9.80;;;2.70;99.90;;;;;;5046355;28;20204;-32
2023/01/17 07:48:18;;;;;;;14.73;9.53;;;2.70;99.90;;;;;;5046303;28;20579;-32
2023/01/17 07:50:53;;;;;;;15.50;10.07;;;2.70;99.90;;;;;;5046349;28;20220;-32
2023/01/17 07:53:25;;;;;;;16.60;10.13;;;2.70;99.90;;;;;;5046526;28;20228;-32
2023/01/17 07:55:54;;;;;;;18.97;10.80;;;2.70;99.90;;;;;;5046199;28;20235;-33
2023/01/17 07:58:26;;;;;;;19.20;9.43;;;2.70;99.90;;;;;;5046053;28;20232;-32
2023/01/17 08:00:59;;;;;;;15.03;9.23;;;2.70;99.90;;;;;;5045723;28;20640;-32
2023/01/17 08:03:31;;;;;;;15.87;9.50;;;2.70;99.90;;;;;;5046035;28;20196;-32
2023/01/17 08:06:00;;;;;;;16.53;10.23;;;2.70;99.90;;;;;;5045493;28;20593;-32
2023/01/17 08:08:30;;;;;;;14.93;9.70;;;2.70;99.90;;;;;;5045810;28;20287;-32
2023/01/17 08:10:57;;;;;;;16.30;9.67;;;2.70;99.90;;;;;;5045853;28;20200;-32
2023/01/17 08:13:27;;;;;;;21.53;10.43;;;2.70;99.90;;;;;;5045377;28;20695;-33
2023/01/17 08:15:56;;;;;;;16.20;10.70;;;2.70;99.90;;;;;;5045146;28;20292;-33
2023/01/17 08:18:25;;;;;;;14.53;9.93;;;2.70;99.90;;;;;;5043602;28;20235;-33
2023/01/17 08:20:53;;;;;;;13.57;9.50;;;2.70;99.90;;;;;;5045349;28;20262;-33
2023/01/17 08:23:23;;;;;;;16.20;9.43;;;2.70;99.90;;;;;;5043745;28;20216;-33
2023/01/17 08:25:52;;;;;;;20.23;10.53;;;2.70;99.90;;;;;;5045567;28;20309;-33
2023/01/17 08:28:19;;;;;;;14.73;9.90;;;2.70;99.90;;;;;;5043755;28;20234;-33
2023/01/17 08:30:47;;;;;;;19.73;10.63;;;2.70;99.90;;;;;;5043434;28;20683;-32
2023/01/17 08:33:14;;;;;;;16.60;10.37;;;2.70;99.90;;;;;;5045321;28;20224;-32
2023/01/17 08:35:52;;;;;;;20.90;12.00;;;2.80;99.90;;;;;;5045340;28;20212;-32
2023/01/17 08:38:22;;;;;;;15.70;10.63;;;2.80;99.90;;;;;;5045299;28;20294;-33
2023/01/17 08:40:50;;;;;;;17.50;10.33;;;2.80;99.90;;;;;;5045783;28;20213;-33
2023/01/17 08:43:20;;;;;;;17.07;11.03;;;2.80;99.90;;;;;;5045664;28;20689;-32
2023/01/17 08:45:54;;;;;;;16.13;10.03;;;2.80;99.90;;;;;;5045615;28;20188;-32
2023/01/17 08:48:22;;;;;;;18.67;10.13;;;2.80;99.90;;;;;;5045264;28;20204;-32
2023/01/17 08:50:52;;;;;;;16.60;10.97;;;2.90;99.90;;;;;;5045031;28;20270;-32
2023/01/17 08:53:21;;;;;;;20.00;10.87;;;2.90;99.90;;;;;;5047129;28;20266;-32
2023/01/17 08:55:56;;;;;;;21.80;11.67;;;2.90;99.90;;;;;;5049293;28;20204;-32
2023/01/17 08:58:29;;;;;;;21.93;11.90;;;2.90;99.90;;;;;;5049257;28;20259;-33
2023/01/17 09:01:03;;;;;;;21.30;11.57;;;2.90;99.90;;;;;;5047695;28;20274;-33
2023/01/17 09:03:34;;;;;;;25.20;11.60;;;2.90;99.90;;;;;;5048709;28;20343;-34
2023/01/17 09:06:12;;;;;;;20.00;11.03;;;3.00;99.90;;;;;;5047489;28;20295;-33
2023/01/17 09:08:45;;;;;;;15.80;9.93;;;3.00;99.90;;;;;;5016867;28;20592;-33
2023/01/17 09:11:16;;;;;;;22.30;11.50;;;3.00;99.90;;;;;;5048884;28;20736;-33
2023/01/17 09:13:44;;;;;;;18.30;10.97;;;3.00;99.90;;;;;;5048800;28;20537;-33
2023/01/17 09:16:13;;;;;;;21.73;11.50;;;3.10;99.90;;;;;;5049366;28;20270;-33
2023/01/17 09:18:41;;;;;;;18.33;11.07;;;3.10;99.90;;;;;;5048443;28;20217;-33
2023/01/17 09:21:10;;;;;;;18.13;11.50;;;3.10;99.90;;;;;;5048626;28;20199;-32
2023/01/17 09:23:40;;;;;;;18.40;11.77;;;3.10;99.90;;;;;;5048905;28;20216;-33
2023/01/17 09:26:23;;;;;;;20.03;11.03;;;3.10;99.90;;;;;;5048018;28;20254;-33
2023/01/17 09:28:53;;;;;;;17.47;11.20;;;3.20;99.90;;;;;;5048215;28;20224;-32
2023/01/17 09:31:25;;;;;;;18.90;10.73;;;3.20;99.90;;;;;;5048182;28;20208;-33
2023/01/17 09:33:57;;;;;;;22.77;12.40;;;3.20;99.90;;;;;;5048627;28;20265;-33
2023/01/17 09:36:27;;;;;;;24.33;11.20;;;3.20;99.90;;;;;;5047506;28;20612;-33
2023/01/17 09:38:57;;;;;;;19.13;11.37;;;3.20;99.90;;;;;;5048467;28;20285;-32
2023/01/17 09:41:29;;;;;;;16.50;10.40;;;3.30;99.90;;;;;;5048185;28;20728;-32
2023/01/17 09:44:35;;;;;;;23.90;11.40;;;3.30;99.90;;;;;;5048128;28;20200;-33
2023/01/17 09:47:14;;;;;;;17.53;10.83;;;3.30;99.90;;;;;;5047635;28;20243;-33
2023/01/17 09:49:46;;;;;;;19.10;12.20;;;3.40;99.90;;;;;;5048082;28;20250;-33
2023/01/17 09:52:19;;;;;;;19.30;10.77;;;3.40;99.90;;;;;;5048138;28;20282;-33
2023/01/17 09:54:50;;;;;;;17.53;11.00;;;3.40;99.90;;;;;;5048489;28;20207;-33
2023/01/17 09:57:42;;;;;;;20.27;11.57;;;3.40;99.90;;;;;;5030694;28;20224;-33
2023/01/17 10:00:15;;;;;;;19.20;11.40;;;3.50;99.90;;;;;;5048185;28;20204;-33
2023/01/17 10:03:26;;;;;;;19.90;11.70;;;3.50;99.90;;;;;;5047778;28;20231;-33
2023/01/17 10:06:17;;;;;;;18.73;12.17;;;3.60;99.90;;;;;;5047690;28;20200;-33
2023/01/17 10:08:55;;;;;;;19.83;11.90;;;3.60;99.90;;;;;;5047692;28;20259;-33
2023/01/17 10:11:41;;;;;;;18.43;11.37;;;3.60;99.90;;;;;;5046080;28;20212;-32
2023/01/17 10:14:24;;;;;;;18.17;10.50;;;3.70;99.90;;;;;;5047779;28;20694;-33
2023/01/17 10:17:02;;;;;;;17.23;10.70;;;3.70;99.90;;;;;;5046942;28;20228;-32
2023/01/17 10:20:03;;;;;;;20.43;9.90;;;3.70;99.90;;;;;;5047586;28;20306;-32
2023/01/17 10:22:50;;;;;;;21.30;10.07;;;3.80;99.90;;;;;;5047442;28;20204;-32
2023/01/17 10:25:42;;;;;;;18.27;10.60;;;3.80;99.90;;;;;;5045172;28;20215;-32
2023/01/17 10:28:17;;;;;;;20.80;10.30;;;3.90;99.90;;;;;;5047252;28;20209;-32
2023/01/17 10:30:49;;;;;;;16.03;10.77;;;3.90;99.90;;;;;;5047157;28;20674;-32
2023/01/17 10:33:24;;;;;;;19.10;11.33;;;4.00;99.90;;;;;;5046659;28;20311;-32
2023/01/17 10:36:02;;;;;;;16.30;10.30;;;4.00;99.90;;;;;;5046923;28;20203;-32
2023/01/17 10:38:37;;;;;;;17.17;10.50;;;4.00;99.90;;;;;;5045352;28;20278;-33
2023/01/17 10:41:18;;;;;;;17.13;9.53;;;4.00;99.90;;;;;;5046875;28;20280;-32
2023/01/17 10:44:19;;;;;;;19.30;10.33;;;4.00;99.90;;;;;;5046686;28;20239;-32
2023/01/17 10:47:11;;;;;;;17.73;9.93;;;4.10;99.90;;;;;;5046818;28;20726;-32
2023/01/17 10:49:52;;;;;;;20.43;10.13;;;4.10;99.90;;;;;;5045338;28;20193;-32
2023/01/17 10:52:47;;;;;;;17.40;10.37;;;4.10;99.90;;;;;;5046591;28;20243;-32
2023/01/17 10:55:33;;;;;;;16.53;10.10;;;4.20;99.90;;;;;;5047163;28;20249;-32
2023/01/17 10:58:02;;;;;;;17.50;10.57;;;4.20;99.90;;;;;;5046930;28;20313;-32
2023/01/17 11:00:54;;;;;;;17.97;11.13;;;4.30;99.90;;;;;;5046494;28;20224;-32
2023/01/17 11:03:27;;;;;;;17.70;11.40;;;4.30;99.90;;;;;;5046486;28;20662;-32
2023/01/17 11:06:13;;;;;;;16.30;10.50;;;4.40;99.90;;;;;;5046406;28;20697;-32
2023/01/17 11:08:55;;;;;;;16.40;10.17;;;4.50;99.90;;;;;;5044962;28;20200;-32
2023/01/17 11:11:28;;;;;;;13.63;9.60;;;4.40;99.90;;;;;;5044739;28;20709;-32
2023/01/17 11:14:03;;;;;;;15.03;9.00;;;4.50;99.90;;;;;;5046426;28;20482;-32
2023/01/17 11:16:31;;;;;;;17.73;8.47;;;4.50;99.90;;;;;;5046106;28;20203;-32
2023/01/17 11:19:26;;;;;;;15.70;8.40;;;4.50;99.90;;;;;;5046373;28;20232;-32
2023/01/17 11:22:01;;;;;;;15.20;7.63;;;4.50;99.90;;;;;;5045151;28;20257;-32
2023/01/17 11:24:52;;;;;;;12.90;7.47;;;4.50;99.90;;;;;;5044825;28;20200;-32
2023/01/17 11:27:25;;;;;;;14.50;7.37;;;4.50;99.90;;;;;;5045241;28;20660;-32
2023/01/17 11:30:16;;;;;;;10.17;6.73;;;4.50;99.90;;;;;;5046281;28;20204;-32
2023/01/17 11:32:55;;;;;;;12.73;7.50;;;4.60;99.90;;;;;;5045401;28;20636;-32
2023/01/17 11:35:30;;;;;;;12.00;7.40;;;4.60;99.90;;;;;;5046187;28;20738;-32
2023/01/17 11:38:02;;;;;;;15.00;7.60;;;4.60;99.90;;;;;;5046367;28;20223;-32
2023/01/17 11:40:36;;;;;;;15.37;7.87;;;4.60;99.90;;;;;;5046121;28;20224;-32
2023/01/17 11:43:21;;;;;;;14.20;8.40;;;4.60;99.90;;;;;;5044592;28;20392;-32
2023/01/17 11:46:16;;;;;;;10.37;6.20;;;4.80;99.90;;;;;;5045869;28;20623;-32
2023/01/17 11:48:52;;;;;;;12.23;5.27;;;4.80;99.90;;;;;;5046442;28;20262;-32
2023/01/17 11:51:55;;;;;;;13.67;6.03;;;4.90;99.90;;;;;;5044533;28;20618;-32
2023/01/17 11:54:37;;;;;;;12.93;4.77;;;4.80;99.90;;;;;;5046451;28;20278;-32
2023/01/17 11:57:34;;;;;;;6.67;2.40;;;4.90;99.90;;;;;;5046282;28;20622;-32
2023/01/17 12:00:13;;;;;;;12.20;3.27;;;4.80;99.90;;;;;;5049273;28;20200;-32
2023/01/17 12:02:53;;;;;;;7.93;3.37;;;4.90;99.90;;;;;;5045976;28;20204;-32
2023/01/17 12:05:38;;;;;;;5.80;3.50;;;4.80;99.90;;;;;;5046325;28;20231;-32
2023/01/17 12:08:35;;;;;;;11.27;3.57;;;4.90;99.90;;;;;;5046041;28;20512;-32
2023/01/17 12:11:27;;;;;;;8.27;3.93;;;4.90;99.90;;;;;;5027789;28;20251;-32
2023/01/17 12:14:27;;;;;;;8.87;3.60;;;4.90;99.90;;;;;;5045456;28;20219;-32
2023/01/17 12:17:21;;;;;;;9.07;3.10;;;4.90;99.90;;;;;;5044271;28;20258;-32
2023/01/17 12:20:05;;;;;;;10.97;3.90;;;4.90;99.90;;;;;;5045642;28;20209;-32
2023/01/17 12:23:05;;;;;;;9.73;4.50;;;4.90;99.90;;;;;;5045888;28;20215;-32
2023/01/17 12:25:38;;;;;;;10.37;5.50;;;4.90;99.90;;;;;;5044501;28;20832;-32
2023/01/17 12:28:05;;;;;;;11.90;5.50;;;5.00;99.90;;;;;;5045556;28;20207;-32
2023/01/17 12:31:01;;;;;;;10.77;4.87;;;5.00;99.90;;;;;;5049113;28;20501;-32
2023/01/17 12:33:55;;;;;;;9.97;5.07;;;5.00;99.90;;;;;;5049965;28;20227;-32
2023/01/17 12:36:43;;;;;;;8.40;4.13;;;5.00;99.90;;;;;;5049115;28;20211;-32
2023/01/17 12:39:13;;;;;;;10.43;4.07;;;5.00;99.90;;;;;;5049288;28;20228;-32
2023/01/17 12:42:17;;;;;;;10.70;4.17;;;5.00;99.90;;;;;;5049386;28;20207;-32
2023/01/17 12:45:05;;;;;;;7.57;3.83;;;5.00;99.90;;;;;;5049207;28;20204;-32
2023/01/17 12:47:36;;;;;;;9.77;3.97;;;5.00;99.90;;;;;;5049178;28;20273;-33
2023/01/17 12:50:38;;;;;;;12.63;3.83;;;5.00;99.90;;;;;;5048099;28;20226;-32
2023/01/17 12:53:42;;;;;;;6.03;3.00;;;5.00;99.90;;;;;;5049098;28;20228;-33
2023/01/17 12:56:36;;;;;;;7.37;3.40;;;5.10;99.90;;;;;;5047891;28;20220;-33
2023/01/17 12:59:15;;;;;;;10.43;2.87;;;5.10;99.90;;;;;;5048734;28;20216;-33
2023/01/17 13:01:56;;;;;;;6.03;3.10;;;5.10;99.90;;;;;;5047386;28;20290;-33
2023/01/17 13:04:51;;;;;;;8.50;2.80;;;5.10;99.90;;;;;;5048928;28;20223;-33
2023/01/17 13:07:31;;;;;;;9.40;2.87;;;5.10;99.90;;;;;;5049066;28;20593;-33
2023/01/17 13:10:42;;;;;;;11.27;3.07;;;5.10;99.90;;;;;;5048579;28;20192;-33
2023/01/17 13:13:23;;;;;;;5.67;3.03;;;5.10;99.90;;;;;;5058052;28;20215;-33
2023/01/17 13:16:14;;;;;;;6.30;2.50;;;5.10;99.90;;;;;;5048783;28;20216;-33
2023/01/17 13:18:52;;;;;;;9.23;4.07;;;5.10;99.90;;;;;;5049198;28;20239;-33
2023/01/17 13:21:35;;;;;;;9.30;2.90;;;5.20;99.90;;;;;;5048778;28;20970;-33
2023/01/17 13:24:19;;;;;;;9.50;3.10;;;5.20;99.90;;;;;;5048941;28;20601;-33
2023/01/17 13:27:07;;;;;;;5.00;2.33;;;5.20;99.90;;;;;;5048476;28;20678;-33
2023/01/17 13:29:37;;;;;;;7.57;2.80;;;5.20;99.90;;;;;;5047133;28;20235;-33
2023/01/17 13:32:24;;;;;;;5.20;2.27;;;5.20;99.90;;;;;;5048682;28;20730;-33
2023/01/17 13:35:03;;;;;;;5.90;2.47;;;5.20;99.90;;;;;;5048239;28;20204;-33
2023/01/17 13:37:35;;;;;;;12.57;2.90;;;5.20;99.90;;;;;;5048714;28;20223;-33
2023/01/17 13:40:23;;;;;;;6.83;2.40;;;5.20;99.90;;;;;;5047987;28;20212;-33
2023/01/17 13:42:54;;;;;;;7.77;2.23;;;5.20;99.90;;;;;;5048259;28;20200;-33
2023/01/17 13:45:28;;;;;;;8.07;2.20;;;5.20;99.90;;;;;;5048528;28;20200;-33
2023/01/17 13:48:11;;;;;;;6.03;2.17;;;5.20;99.90;;;;;;5048482;28;20659;-33
2023/01/17 13:51:01;;;;;;;10.53;2.07;;;5.20;99.90;;;;;;5048255;28;20266;-33
2023/01/17 13:53:38;;;;;;;5.50;1.80;;;5.10;99.90;;;;;;5047798;28;20240;-33
2023/01/17 13:56:10;;;;;;;5.97;2.27;;;5.10;99.90;;;;;;5048261;28;20204;-33
2023/01/17 13:58:48;;;;;;;10.80;1.80;;;5.10;99.90;;;;;;5047934;28;20315;-33
2023/01/17 14:01:22;;;;;;;6.57;2.00;;;5.00;99.90;;;;;;5048235;28;20202;-33
2023/01/17 14:03:51;;;;;;;5.70;1.57;;;5.00;99.90;;;;;;5047980;28;20219;-33
2023/01/17 14:06:39;;;;;;;4.17;1.27;;;5.00;99.90;;;;;;5047888;28;20261;-33
2023/01/17 14:09:22;;;;;;;9.10;1.90;;;5.00;99.90;;;;;;5046761;28;20683;-33
2023/01/17 14:12:04;;;;;;;4.13;1.50;;;5.10;99.90;;;;;;5047596;28;20244;-33
2023/01/17 14:14:41;;;;;;;3.83;1.20;;;5.10;99.90;;;;;;5046079;28;20220;-33
2023/01/17 14:17:19;;;;;;;5.27;1.30;;;5.00;99.90;;;;;;5048021;28;20552;-33
2023/01/17 14:19:51;;;;;;;3.40;1.60;;;5.10;99.90;;;;;;5046177;28;20281;-33
2023/01/17 14:22:34;;;;;;;6.20;1.40;;;5.10;99.90;;;;;;5047511;28;20236;-33
2023/01/17 14:25:10;;;;;;;4.60;1.30;;;5.10;99.90;;;;;;5047967;28;20731;-33
2023/01/17 14:27:50;;;;;;;8.07;1.67;;;5.10;99.90;;;;;;5046960;28;20203;-33
2023/01/17 14:30:17;;;;;;;4.07;1.70;;;5.10;99.90;;;;;;5046020;28;20394;-33
2023/01/17 14:33:00;;;;;;;4.57;1.40;;;5.10;99.90;;;;;;5047412;28;20220;-33
2023/01/17 14:35:55;;;;;;;7.27;1.73;;;5.20;99.90;;;;;;5045929;28;20197;-33
2023/01/17 14:38:27;;;;;;;4.60;1.93;;;5.20;99.90;;;;;;5048170;28;20251;-33
2023/01/17 14:41:10;;;;;;;5.20;1.47;;;5.30;99.90;;;;;;5045576;28;20679;-33
2023/01/17 14:43:44;;;;;;;6.13;1.87;;;5.30;99.90;;;;;;5045467;28;20208;-33
2023/01/17 14:46:22;;;;;;;4.60;1.77;;;5.30;99.90;;;;;;5029524;28;20290;-33
2023/01/17 14:48:57;;;;;;;7.33;2.40;;;5.30;99.90;;;;;;5047203;28;20200;-33